createdAt,value
2019-05-22T00:02:00.943Z,10.18
2019-05-22T00:04:55.274Z,9.03
2019-05-22T00:07:48.333Z,8.40
2019-05-22T00:10:42.409Z,10.82
2019-05-22T00:13:36.232Z,9.35
2019-05-22T00:16:30.058Z,8.05
2019-05-22T00:19:24.139Z,8.58
2019-05-22T00:22:23.592Z,7.80
2019-05-22T00:25:17.162Z,7.67
2019-05-22T00:28:09.965Z,10.13
2019-05-22T00:31:04.810Z,10.13
2019-05-22T00:33:57.608Z,5.80
2019-05-22T00:36:50.409Z,7.83
2019-05-22T00:39:43.976Z,6.40
2019-05-22T00:42:37.036Z,9.93
2019-05-22T00:45:30.349Z,6.78
2019-05-22T00:48:23.401Z,6.37
2019-05-22T00:51:28.747Z,5.20
2019-05-22T00:54:44.839Z,9.85
2019-05-22T00:57:37.899Z,5.42
2019-05-22T01:00:49.897Z,10.32
2019-05-22T01:03:45.003Z,4.85
2019-05-22T01:06:38.313Z,6.47
2019-05-22T01:09:34.185Z,3.52
2019-05-22T01:12:31.086Z,6.35
2019-05-22T01:15:24.391Z,8.73
2019-05-22T01:18:11.615Z,8.65
2019-05-22T01:21:04.618Z,6.78
2019-05-22T01:23:58.183Z,8.63
2019-05-22T01:26:51.500Z,11.43
2019-05-22T01:29:44.296Z,7.37
2019-05-22T01:32:41.203Z,12.20
2019-05-22T01:35:35.786Z,3.25
2019-05-22T01:38:29.352Z,8.58
2019-05-22T01:41:23.433Z,7.03
2019-05-22T01:44:16.745Z,8.25
2019-05-22T01:47:11.851Z,8.18
2019-05-22T01:50:07.206Z,8.05
2019-05-22T01:53:00.007Z,9.10
2019-05-22T01:55:52.810Z,10.25
2019-05-22T01:58:45.608Z,9.18
2019-05-22T02:01:39.946Z,9.10
2019-05-22T02:04:33.000Z,12.10
2019-05-22T02:07:27.080Z,5.25
2019-05-22T02:10:20.648Z,8.78
2019-05-22T02:13:13.963Z,9.13
2019-05-22T02:16:07.015Z,8.20
2019-05-22T02:19:01.354Z,5.75
2019-05-22T02:21:54.408Z,6.03
2019-05-22T02:24:47.211Z,5.03
2019-05-22T02:27:40.524Z,8.20
2019-05-22T02:30:33.576Z,7.87
2019-05-22T02:33:26.891Z,8.43
2019-05-22T02:36:19.958Z,8.80
2019-05-22T02:39:13.010Z,9.10
2019-05-22T02:42:14.509Z,13.25
2019-05-22T02:45:03.714Z,8.88
2019-05-22T02:47:56.526Z,8.25
2019-05-22T02:50:50.092Z,9.83
2019-05-22T02:53:43.144Z,9.63
2019-05-22T02:56:36.970Z,8.50
2019-05-22T02:59:24.872Z,10.25
2019-05-22T03:02:17.704Z,11.78
2019-05-22T03:05:16.650Z,8.35
2019-05-22T03:08:09.708Z,8.23
2019-05-22T03:11:02.508Z,10.35
2019-05-22T03:14:05.293Z,12.30
2019-05-22T03:17:03.565Z,9.18
2019-05-22T03:19:52.425Z,11.05
2019-05-22T03:22:48.551Z,8.90
2019-05-22T03:25:41.354Z,9.58
2019-05-22T03:28:34.409Z,10.85
2019-05-22T03:31:27.978Z,10.28
2019-05-22T03:34:20.777Z,9.93
2019-05-22T03:37:13.581Z,10.15
2019-05-22T03:40:06.638Z,10.82
2019-05-22T03:42:59.433Z,10.78
2019-05-22T03:45:52.238Z,12.05
2019-05-22T03:48:41.363Z,12.13
2019-05-22T03:51:34.251Z,11.85
2019-05-22T03:54:21.687Z,9.80
2019-05-22T03:57:14.492Z,12.73
2019-05-22T04:00:07.531Z,10.25
2019-05-22T04:03:00.585Z,11.95
2019-05-22T04:05:54.666Z,11.25
2019-05-22T04:08:49.767Z,9.58
2019-05-22T04:11:42.573Z,14.40
2019-05-22T04:14:35.635Z,11.18
2019-05-22T04:17:25.288Z,9.08
2019-05-22T04:20:18.413Z,11.97
2019-05-22T04:23:15.311Z,10.30
2019-05-22T04:26:08.360Z,10.45
2019-05-22T04:29:03.730Z,12.23
2019-05-22T04:31:59.851Z,10.72
2019-05-22T04:34:52.652Z,9.93
2019-05-22T04:37:45.450Z,13.48
2019-05-22T04:41:04.873Z,9.03
2019-05-22T04:43:57.932Z,10.35
2019-05-22T04:46:50.732Z,12.82
2019-05-22T04:49:43.788Z,11.18
2019-05-22T04:52:36.588Z,10.58
2019-05-22T04:55:26.025Z,8.00
2019-05-22T04:58:19.371Z,7.37
2019-05-22T05:01:12.188Z,10.30
2019-05-22T05:04:05.744Z,9.28
2019-05-22T05:06:59.049Z,6.83
2019-05-22T05:09:52.112Z,12.43
2019-05-22T05:12:44.908Z,13.43
2019-05-22T05:15:37.705Z,10.03
2019-05-22T05:18:30.512Z,5.87
2019-05-22T05:21:23.569Z,6.58
2019-05-22T05:24:16.360Z,9.98
2019-05-22T05:27:09.448Z,8.80
2019-05-22T05:30:02.223Z,3.90
2019-05-22T05:32:55.272Z,3.60
2019-05-22T05:35:48.327Z,7.83
2019-05-22T05:38:41.396Z,4.97
2019-05-22T05:41:34.183Z,3.35
2019-05-22T05:44:26.993Z,3.22
2019-05-22T05:47:19.789Z,4.17
2019-05-22T05:50:08.743Z,2.75
2019-05-22T05:53:01.547Z,4.20
2019-05-22T05:56:10.417Z,4.20
2019-05-22T05:59:03.282Z,6.25
2019-05-22T06:01:59.146Z,7.47
2019-05-22T06:04:53.481Z,4.42
2019-05-22T06:07:46.280Z,5.45
2019-05-22T06:10:49.067Z,6.50
2019-05-22T06:13:42.895Z,6.30
2019-05-22T06:16:50.282Z,7.35
2019-05-22T06:19:43.084Z,5.60
2019-05-22T06:22:36.391Z,5.10
2019-05-22T06:25:25.961Z,6.87
2019-05-22T06:28:20.718Z,8.45
2019-05-22T06:31:13.511Z,7.65
2019-05-22T06:34:07.593Z,6.42
2019-05-22T06:37:00.656Z,5.70
2019-05-22T06:39:53.450Z,4.47
2019-05-22T06:42:46.505Z,4.67
2019-05-22T06:45:39.305Z,7.95
2019-05-22T06:48:32.360Z,6.28
2019-05-22T06:51:25.161Z,13.60
2019-05-22T06:54:17.961Z,10.82
2019-05-22T06:57:10.761Z,15.88
2019-05-22T07:00:13.555Z,6.92
2019-05-22T07:02:56.618Z,6.75
2019-05-22T07:05:49.415Z,6.03
2019-05-22T07:08:42.474Z,7.58
2019-05-22T07:11:35.275Z,8.08
2019-05-22T07:14:29.100Z,5.87
2019-05-22T07:17:22.168Z,11.15
2019-05-22T07:20:15.212Z,11.28
2019-05-22T07:26:07.981Z,6.53
2019-05-22T07:29:04.502Z,8.65
2019-05-22T07:31:53.833Z,4.97
2019-05-22T07:34:46.632Z,13.65
2019-05-22T07:37:39.436Z,8.30
2019-05-22T07:40:32.238Z,5.72
2019-05-22T07:43:25.040Z,7.78
2019-05-22T07:46:18.860Z,6.47
2019-05-22T07:49:12.946Z,7.08
2019-05-22T07:52:02.151Z,7.47
2019-05-22T07:54:54.970Z,9.13
2019-05-22T07:57:47.751Z,6.62
2019-05-22T08:00:40.624Z,4.95
2019-05-22T08:03:33.610Z,6.87
2019-05-22T08:06:26.411Z,3.08
2019-05-22T08:09:15.624Z,9.25
2019-05-22T08:12:08.681Z,3.15
2019-05-22T08:15:01.996Z,5.95
2019-05-22T08:17:54.792Z,3.55
2019-05-22T08:20:47.851Z,4.65
2019-05-22T08:23:41.162Z,4.17
2019-05-22T08:26:51.645Z,7.22
2019-05-22T08:29:28.051Z,5.30
2019-05-22T08:32:21.352Z,6.33
2019-05-22T08:35:14.153Z,8.05
2019-05-22T08:38:07.209Z,5.60
2019-05-22T08:41:01.294Z,4.97
2019-05-22T08:44:14.472Z,2.75
2019-05-22T08:46:47.147Z,6.67
2019-05-22T08:49:40.202Z,3.40
2019-05-22T08:52:34.285Z,6.55
2019-05-22T08:55:27.851Z,5.45
2019-05-22T08:58:20.647Z,5.25
2019-05-22T09:01:13.709Z,5.00
2019-05-22T09:04:06.247Z,4.70
2019-05-22T09:06:59.312Z,6.47
2019-05-22T09:09:53.130Z,6.42
2019-05-22T09:12:46.183Z,4.83
2019-05-22T09:15:40.264Z,7.42
2019-05-22T09:18:33.066Z,3.37
2019-05-22T09:21:26.891Z,7.17
2019-05-22T09:24:19.690Z,8.78
2019-05-22T09:27:12.749Z,5.58
2019-05-22T09:30:01.977Z,4.90
2019-05-22T09:32:55.021Z,4.12
2019-05-22T09:35:48.071Z,5.78
2019-05-22T09:38:41.404Z,8.65
2019-05-22T09:41:34.439Z,2.75
2019-05-22T09:44:30.317Z,2.17
2019-05-22T09:47:23.371Z,4.37
2019-05-22T09:50:16.943Z,6.28
2019-05-22T09:53:09.737Z,2.70
2019-05-22T09:56:02.792Z,6.10
2019-05-22T09:58:55.846Z,3.62
2019-05-22T10:01:48.908Z,5.75
2019-05-22T10:04:41.708Z,2.77
2019-05-22T10:07:35.020Z,3.22
2019-05-22T10:10:28.075Z,3.02
2019-05-22T10:13:21.128Z,1.82
2019-05-22T10:16:14.185Z,2.55
2019-05-22T10:19:06.993Z,4.28
2019-05-22T10:21:59.789Z,7.17
2019-05-22T10:24:52.846Z,2.10
2019-05-22T10:27:46.410Z,1.47
2019-05-22T10:30:39.466Z,2.92
2019-05-22T10:33:32.311Z,3.52
2019-05-22T10:36:25.066Z,3.00
2019-05-22T10:39:18.121Z,4.33
2019-05-22T10:42:10.923Z,2.60
2019-05-22T10:45:03.725Z,5.08
2019-05-22T10:47:57.032Z,2.17
2019-05-22T10:50:49.838Z,2.98
2019-05-22T10:53:42.889Z,2.20
2019-05-22T10:56:35.692Z,2.05
2019-05-22T10:59:29.000Z,2.17
2019-05-22T11:02:22.833Z,4.47
2019-05-22T11:05:15.630Z,3.98
2019-05-22T11:08:08.690Z,5.03
2019-05-22T11:11:02.503Z,1.77
2019-05-22T11:14:01.159Z,1.05
2019-05-22T11:16:44.521Z,1.57
2019-05-22T11:19:37.583Z,2.83
2019-05-22T11:22:34.850Z,4.35
2019-05-22T11:25:24.200Z,2.83
2019-05-22T11:28:16.998Z,5.58
2019-05-22T11:31:10.061Z,2.08
2019-05-22T11:34:03.115Z,2.00
2019-05-22T11:36:55.925Z,2.65
2019-05-22T11:39:48.971Z,4.55
2019-05-22T11:42:38.211Z,1.77
2019-05-22T11:45:30.985Z,2.17
2019-05-22T11:48:24.037Z,3.05
2019-05-22T11:51:16.846Z,3.47
2019-05-22T11:54:10.116Z,2.50
2019-05-22T11:57:02.696Z,1.90
2019-05-22T11:59:55.752Z,3.22
2019-05-22T12:02:48.808Z,2.70
2019-05-22T12:05:41.608Z,1.57
2019-05-22T12:08:35.175Z,1.40
2019-05-22T12:11:27.979Z,2.17
2019-05-22T12:14:17.189Z,2.45
2019-05-22T12:17:07.634Z,3.90
2019-05-22T12:20:00.488Z,3.25
2019-05-22T12:22:53.548Z,2.27
2019-05-22T12:25:46.344Z,2.50
2019-05-22T12:28:39.155Z,1.95
2019-05-22T12:31:31.943Z,0.80
2019-05-22T12:34:24.748Z,1.67
2019-05-22T12:37:17.801Z,3.08
2019-05-22T12:40:10.856Z,1.52
2019-05-22T12:43:05.705Z,1.35
2019-05-22T12:45:58.773Z,4.83
2019-05-22T12:48:59.757Z,4.30
2019-05-22T12:51:53.071Z,2.10
2019-05-22T12:54:51.527Z,4.33
2019-05-22T12:57:38.928Z,3.25
2019-05-22T13:00:31.724Z,1.45
2019-05-22T13:03:17.074Z,1.62
2019-05-22T13:06:10.156Z,0.95
2019-05-22T13:09:02.952Z,3.05
2019-05-22T13:11:55.754Z,1.50
2019-05-22T13:14:48.813Z,0.70
2019-05-22T13:17:54.922Z,2.17
2019-05-22T13:20:44.641Z,8.25
2019-05-22T13:23:36.942Z,2.55
2019-05-22T13:26:29.996Z,1.72
2019-05-22T13:29:18.953Z,1.07
2019-05-22T13:32:12.011Z,1.10
2019-05-22T13:35:05.070Z,1.72
2019-05-22T13:37:58.026Z,4.22
2019-05-22T13:40:50.663Z,1.02
2019-05-22T13:43:43.463Z,1.15
2019-05-22T13:46:37.032Z,1.57
2019-05-22T13:49:29.832Z,1.67
2019-05-22T13:52:22.632Z,3.30
2019-05-22T13:55:11.866Z,1.40
2019-05-22T13:58:04.653Z,0.98
2019-05-22T14:00:57.706Z,2.55
2019-05-22T14:03:50.772Z,1.98
2019-05-22T14:06:44.075Z,1.30
2019-05-22T14:09:36.872Z,2.25
2019-05-22T14:12:29.929Z,2.17
2019-05-22T14:15:23.000Z,1.87
2019-05-22T14:18:16.298Z,1.70
2019-05-22T14:21:09.098Z,2.77
2019-05-22T14:24:03.176Z,2.08
2019-05-22T14:26:55.975Z,5.70
2019-05-22T14:29:49.030Z,2.08
2019-05-22T14:32:42.095Z,1.77
2019-05-22T14:35:47.616Z,1.55
2019-05-22T14:38:28.967Z,1.02
2019-05-22T14:41:22.031Z,6.22
2019-05-22T14:44:15.081Z,1.10
2019-05-22T14:47:13.127Z,1.80
2019-05-22T14:49:57.353Z,1.85
2019-05-22T14:52:47.846Z,2.52
2019-05-22T14:55:40.653Z,1.20
2019-05-22T14:58:38.823Z,1.40
2019-05-22T15:02:27.950Z,2.95
2019-05-22T15:05:21.010Z,1.17
2019-05-22T15:08:14.315Z,4.83
2019-05-22T15:11:07.371Z,0.88
2019-05-22T15:14:00.176Z,1.62
2019-05-22T15:16:53.223Z,0.55
2019-05-22T15:19:42.358Z,0.70
2019-05-22T15:22:35.245Z,2.55
2019-05-22T15:25:28.304Z,0.98
2019-05-22T15:28:21.096Z,1.87
2019-05-22T15:31:14.150Z,1.00
2019-05-22T15:34:06.952Z,2.87
2019-05-22T15:36:59.757Z,0.88
2019-05-22T15:39:52.811Z,1.20
2019-05-22T15:42:52.778Z,1.57
2019-05-22T15:45:45.582Z,1.35
2019-05-22T15:48:44.269Z,1.02
2019-05-22T15:51:37.063Z,2.37
2019-05-22T15:54:30.385Z,3.37
2019-05-22T15:57:23.688Z,0.85
2019-05-22T16:00:16.486Z,1.95
2019-05-22T16:03:11.080Z,2.22
2019-05-22T16:06:04.167Z,0.82
2019-05-22T16:08:56.940Z,1.25
2019-05-22T16:11:49.992Z,2.27
2019-05-22T16:14:39.465Z,1.25
2019-05-22T16:17:32.268Z,6.03
2019-05-22T16:20:33.770Z,3.25
2019-05-22T16:23:27.593Z,1.30
2019-05-22T16:26:17.041Z,1.55
2019-05-22T16:29:09.864Z,1.07
2019-05-22T16:32:02.925Z,1.52
2019-05-22T16:34:56.247Z,0.80
2019-05-22T16:37:49.030Z,1.52
2019-05-22T16:40:42.087Z,0.98
2019-05-22T16:43:48.099Z,1.25
2019-05-22T16:46:25.383Z,0.78
2019-05-22T16:49:18.187Z,1.07
2019-05-22T16:52:13.730Z,1.22
2019-05-22T16:55:04.820Z,1.45
2019-05-22T16:57:58.631Z,2.72
2019-05-22T17:00:51.692Z,1.15
2019-05-22T17:03:44.747Z,1.37
2019-05-22T17:06:37.550Z,3.05
2019-05-22T17:09:31.119Z,1.20
2019-05-22T17:12:25.192Z,1.25
2019-05-22T17:15:18.763Z,4.85
2019-05-22T17:18:11.817Z,1.57
2019-05-22T17:21:04.617Z,0.78
2019-05-22T17:23:57.933Z,1.42
2019-05-22T17:26:51.499Z,1.42
2019-05-22T17:29:44.296Z,1.72
2019-05-22T17:32:37.097Z,0.95
2019-05-22T17:35:26.341Z,1.25
2019-05-22T17:38:16.556Z,2.47
2019-05-22T17:41:09.869Z,1.90
2019-05-22T17:44:02.667Z,1.75
2019-05-22T17:47:09.570Z,1.57
2019-05-22T17:50:02.345Z,1.52
2019-05-22T17:52:56.479Z,1.27
2019-05-22T17:55:49.225Z,0.80
2019-05-22T17:58:43.048Z,1.87
2019-05-22T18:01:35.848Z,1.55
2019-05-22T18:04:29.936Z,1.37
2019-05-22T18:07:23.002Z,1.25
2019-05-22T18:10:16.298Z,1.70
2019-05-22T18:13:09.355Z,2.42
2019-05-22T18:16:04.614Z,4.42
2019-05-22T18:18:55.464Z,3.42
2019-05-22T18:21:48.527Z,1.65
2019-05-22T18:24:37.483Z,1.75
2019-05-22T18:27:31.559Z,2.90
2019-05-22T18:30:24.620Z,4.00
2019-05-22T18:33:13.978Z,1.95
2019-05-22T18:36:06.888Z,1.57
2019-05-22T18:39:00.199Z,3.52
2019-05-22T18:41:54.551Z,1.82
2019-05-22T18:44:48.369Z,1.70
2019-05-22T18:47:41.680Z,1.92
2019-05-22T18:50:35.532Z,1.87
2019-05-22T18:53:29.576Z,1.47
2019-05-22T18:56:22.893Z,2.58
2019-05-22T18:59:15.945Z,3.00
2019-05-22T19:02:05.313Z,3.67
2019-05-22T19:04:58.230Z,1.17
2019-05-22T19:07:51.015Z,1.55
2019-05-22T19:10:45.133Z,1.85
2019-05-22T19:13:38.413Z,1.72
2019-05-22T19:16:31.721Z,1.95
2019-05-22T19:19:28.418Z,1.55
2019-05-22T19:22:20.399Z,3.40
2019-05-22T19:25:13.491Z,1.25
2019-05-22T19:28:44.289Z,1.17
2019-05-22T19:31:32.583Z,2.98
2019-05-22T19:34:26.152Z,2.60
2019-05-22T19:37:19.208Z,2.27
2019-05-22T19:40:13.308Z,2.37
2019-05-22T19:43:07.640Z,1.45
2019-05-22T19:46:00.428Z,1.20
2019-05-22T19:48:55.527Z,1.95
2019-05-22T19:51:44.751Z,1.80
2019-05-22T19:54:37.570Z,7.97
2019-05-22T19:57:30.343Z,3.62
2019-05-22T20:00:19.564Z,2.87
2019-05-22T20:03:12.873Z,2.87
2019-05-22T20:06:05.931Z,4.33
2019-05-22T20:08:58.990Z,2.33
2019-05-22T20:11:52.045Z,1.75
2019-05-22T20:14:45.609Z,1.37
2019-05-22T20:17:38.684Z,2.62
2019-05-22T20:20:31.743Z,2.08
2019-05-22T20:23:35.585Z,4.35
2019-05-22T20:26:18.089Z,3.25
2019-05-22T20:29:11.159Z,3.92
2019-05-22T20:32:03.948Z,4.70
2019-05-22T20:34:56.746Z,1.70
2019-05-22T20:37:50.056Z,1.75
2019-05-22T20:40:43.367Z,3.67
2019-05-22T20:43:36.423Z,3.72
2019-05-22T20:46:29.223Z,2.67
2019-05-22T20:49:22.026Z,1.52
2019-05-22T20:52:15.090Z,2.35
2019-05-22T20:55:07.879Z,3.42
2019-05-22T20:58:00.946Z,3.90
2019-05-22T21:00:53.736Z,3.60
2019-05-22T21:03:47.305Z,2.55
2019-05-22T21:06:40.359Z,1.50
2019-05-22T21:09:33.425Z,4.83
2019-05-22T21:12:27.247Z,3.40
2019-05-22T21:15:20.296Z,2.90
2019-05-22T21:18:13.097Z,3.55
2019-05-22T21:21:06.421Z,2.72
2019-05-22T21:24:10.568Z,2.90
2019-05-22T21:26:54.055Z,4.50
2019-05-22T21:29:47.884Z,3.95
2019-05-22T21:32:40.939Z,4.30
2019-05-22T21:35:33.736Z,2.98
2019-05-22T21:38:27.048Z,3.55
2019-05-22T21:41:21.127Z,5.87
2019-05-22T21:44:14.443Z,3.45
2019-05-22T21:47:03.661Z,2.55
2019-05-22T21:49:58.258Z,4.60
2019-05-22T21:52:51.305Z,1.70
2019-05-22T21:55:45.795Z,5.08
2019-05-22T21:58:35.150Z,2.98
2019-05-22T22:01:28.433Z,2.27
2019-05-22T22:04:32.231Z,3.45
2019-05-22T22:07:25.542Z,2.25
2019-05-22T22:10:18.611Z,6.20
2019-05-22T22:13:22.919Z,2.87
2019-05-22T22:16:28.013Z,2.80
2019-05-22T22:19:22.089Z,3.72
2019-05-22T22:22:27.432Z,4.45
2019-05-22T22:25:21.509Z,3.95
2019-05-22T22:28:14.568Z,2.85
2019-05-22T22:31:07.629Z,3.02
2019-05-22T22:33:56.944Z,4.97
2019-05-22T22:36:49.639Z,2.98
2019-05-22T22:39:39.982Z,3.17
2019-05-22T22:42:30.375Z,3.17
2019-05-22T22:45:23.173Z,2.30
2019-05-22T22:48:15.974Z,2.35
2019-05-22T22:51:09.803Z,3.80
2019-05-22T22:54:02.605Z,6.45
2019-05-22T22:56:55.401Z,3.00
2019-05-22T22:59:48.711Z,7.30
2019-05-22T23:02:41.769Z,3.35
2019-05-22T23:05:34.823Z,4.10
2019-05-22T23:08:28.650Z,4.78
2019-05-22T23:11:21.705Z,5.58
2019-05-22T23:14:14.503Z,3.50
2019-05-22T23:17:07.562Z,3.65
2019-05-22T23:19:57.035Z,3.35
2019-05-22T23:22:42.934Z,5.90
2019-05-22T23:25:35.718Z,4.72
2019-05-22T23:28:34.622Z,4.53
2019-05-22T23:31:21.580Z,6.40
2019-05-22T23:34:15.145Z,7.72
2019-05-22T23:37:08.201Z,5.70
2019-05-22T23:40:01.821Z,5.20
2019-05-22T23:42:55.081Z,2.95
2019-05-22T23:45:47.878Z,4.83
2019-05-22T23:48:40.686Z,4.92
2019-05-22T23:51:33.477Z,3.33
2019-05-22T23:54:26.282Z,6.08
2019-05-22T23:57:19.076Z,6.20
